Time;durP1;ratioP1;P1;durP2;ratioP2;P2;SDS_P1;SDS_P2;PMS_P1;PMS_P2;Temp;Humidity;BMP_temperature;BMP_pressure;BME280_temperature;BME280_humidity;BME280_pressure;Samples;Min_cycle;Max_cycle;Signal;HPM_P1;HPM_P2
2021/05/11 00:02:05;;;;;;;2.70;2.05;;;;;;;16.65;63.59;96548.88;4994298;28;20115;-78
2021/05/11 00:04:30;;;;;;;2.55;2.35;;;;;;;16.63;63.80;96540.53;4997886;28;20037;-77
2021/05/11 00:06:56;;;;;;;4.20;2.88;;;;;;;16.53;63.90;96530.25;5011846;28;20037;-78
2021/05/11 00:09:21;;;;;;;4.38;2.88;;;;;;;16.58;63.96;96528.25;4985420;28;20033;-78
2021/05/11 00:11:46;;;;;;;2.78;2.05;;;;;;;16.64;63.81;96542.09;5002414;28;20028;-78
2021/05/11 00:14:12;;;;;;;2.97;2.42;;;;;;;16.64;63.69;96540.22;5005710;28;20048;-78
2021/05/11 00:16:37;;;;;;;3.38;2.70;;;;;;;16.60;63.93;96526.09;4993941;28;20037;-78
2021/05/11 00:19:06;;;;;;;2.83;2.30;;;;;;;16.59;63.71;96529.81;5001746;28;20049;-78
2021/05/11 00:21:32;;;;;;;3.63;2.55;;;;;;;16.61;63.88;96537.41;5013186;28;20030;-78
2021/05/11 00:23:57;;;;;;;4.43;2.40;;;;;;;16.61;63.87;96540.06;4986416;28;20048;-78
2021/05/11 00:26:23;;;;;;;3.08;2.70;;;;;;;16.59;63.83;96532.47;4993647;28;20109;-78
2021/05/11 00:28:48;;;;;;;2.65;2.28;;;;;;;16.56;63.86;96538.31;4990253;28;20044;-78
2021/05/11 00:31:14;;;;;;;2.22;2.03;;;;;;;16.61;63.99;96546.06;5009910;28;20036;-78
2021/05/11 00:33:39;;;;;;;3.85;2.42;;;;;;;16.61;64.00;96553.19;5012891;28;20254;-78
2021/05/11 00:36:05;;;;;;;2.83;2.45;;;;;;;16.58;63.92;96538.00;4995738;28;20520;-78
2021/05/11 00:38:30;;;;;;;3.75;2.90;;;;;;;16.53;63.77;96514.47;4995064;28;20408;-78
2021/05/11 00:40:56;;;;;;;4.13;3.38;;;;;;;16.50;64.01;96510.56;4983583;28;20104;-78
2021/05/11 00:43:21;;;;;;;3.42;2.83;;;;;;;16.54;63.93;96516.03;4973652;28;20441;-78
2021/05/11 00:45:46;;;;;;;4.28;3.10;;;;;;;16.53;63.77;96522.34;4966521;28;20112;-78
2021/05/11 00:48:12;;;;;;;4.93;3.75;;;;;;;16.54;63.84;96532.56;4995766;28;20029;-78
2021/05/11 00:50:37;;;;;;;4.85;3.67;;;;;;;16.52;63.73;96526.84;4996438;28;20029;-78
2021/05/11 00:53:02;;;;;;;4.15;3.20;;;;;;;16.56;64.08;96522.53;4994687;28;20025;-78
2021/05/11 00:55:28;;;;;;;3.30;3.00;;;;;;;16.58;63.87;96523.00;5012315;28;20048;-77
2021/05/11 00:57:54;;;;;;;3.75;2.75;;;;;;;16.60;63.88;96531.38;4991289;28;20397;-78
2021/05/11 01:00:20;;;;;;;3.90;3.10;;;;;;;16.60;63.63;96531.38;4982259;28;20034;-78
2021/05/11 01:02:45;;;;;;;3.50;3.00;;;;;;;16.58;63.64;96524.88;5004867;28;20033;-78
2021/05/11 01:05:11;;;;;;;3.30;2.65;;;;;;;16.59;63.93;96532.47;4978157;28;20037;-78
2021/05/11 01:07:37;;;;;;;4.20;3.30;;;;;;;16.59;63.89;96532.47;4973014;28;20030;-78
2021/05/11 01:10:03;;;;;;;5.15;3.75;;;;;;;16.51;63.80;96533.16;4995610;28;20033;-78
2021/05/11 01:12:29;;;;;;;3.90;3.20;;;;;;;16.53;63.73;96525.00;5005427;28;20026;-78
2021/05/11 01:14:54;;;;;;;3.92;2.80;;;;;;;16.57;63.93;96525.94;5029564;28;20029;-77
2021/05/11 01:17:38;;;;;;;3.45;2.80;;;;;;;16.50;63.69;96510.56;4995333;28;20126;-78
2021/05/11 01:20:14;;;;;;;2.90;2.55;;;;;;;16.34;64.08;96499.66;5014834;28;20034;-77
2021/05/11 01:25:28;;;;;;;4.97;3.65;;;;;;;16.40;64.13;96484.53;5014573;28;20056;-78
2021/05/11 01:28:11;;;;;;;4.25;3.20;;;;;;;16.34;64.13;96478.63;4996252;28;20376;-78
2021/05/11 01:31:07;;;;;;;4.60;3.17;;;;;;;16.41;64.18;96486.09;5011899;28;20315;-77
2021/05/11 02:10:33;;;;;;;6.05;4.75;;;;;;;16.38;64.00;96461.22;4997031;28;20044;-77
2021/05/11 02:23:29;;;;;;;6.70;4.78;;;;;;;16.36;64.00;96468.59;5013411;28;20028;-78
2021/05/11 02:25:58;;;;;;;7.15;5.47;;;;;;;16.25;63.85;96483.84;5010379;28;20029;-78
2021/05/11 02:28:24;;;;;;;7.53;4.90;;;;;;;16.39;63.89;96480.38;4978677;28;20546;-78
2021/05/11 02:30:50;;;;;;;6.40;4.57;;;;;;;16.39;63.69;96504.03;5001578;28;20029;-78
2021/05/11 02:33:16;;;;;;;4.95;4.05;;;;;;;16.40;64.08;96503.72;4978562;28;20492;-78
2021/05/11 02:35:42;;;;;;;7.70;5.32;;;;;;;16.41;63.88;96504.50;4994252;28;20030;-78
2021/05/11 02:38:07;;;;;;;7.35;5.00;;;;;;;16.42;64.00;96504.19;5010958;28;20092;-78
2021/05/11 02:40:33;;;;;;;6.80;4.95;;;;;;;16.38;63.77;96505.88;5001513;28;20483;-78
2021/05/11 02:43:05;;;;;;;6.00;4.65;;;;;;;16.39;63.85;96499.53;4978131;28;20030;-78
2021/05/11 02:45:32;;;;;;;5.68;4.30;;;;;;;16.41;63.74;96501.88;4979269;28;20041;-80
2021/05/11 02:47:57;;;;;;;6.10;4.15;;;;;;;16.39;63.82;96483.00;4994021;28;20037;-80
2021/05/11 02:50:25;;;;;;;6.82;4.65;;;;;;;16.29;64.10;96484.78;5010885;28;20495;-79
2021/05/11 02:52:51;;;;;;;5.03;3.70;;;;;;;16.37;64.05;96485.94;4994173;28;20111;-80
2021/05/11 02:55:18;;;;;;;5.85;4.22;;;;;;;16.28;63.88;96487.72;4994387;28;20029;-79
2021/05/11 02:57:44;;;;;;;6.63;4.68;;;;;;;16.32;63.71;96477.41;4993782;28;20025;-79
2021/05/11 03:00:11;;;;;;;6.95;4.57;;;;;;;16.19;63.91;96458.75;5010853;28;20037;-79
2021/05/11 03:02:37;;;;;;;6.00;4.53;;;;;;;16.26;63.98;96463.59;5010952;28;20444;-79
2021/05/11 03:05:03;;;;;;;6.18;4.82;;;;;;;16.33;64.07;96468.41;4977540;28;20033;-80
2021/05/11 03:07:28;;;;;;;5.55;4.18;;;;;;;16.28;64.10;96459.59;4988571;28;20079;-79
2021/05/11 03:09:54;;;;;;;6.97;4.80;;;;;;;16.24;64.02;96463.88;4987375;28;20072;-79
2021/05/11 03:12:19;;;;;;;5.13;4.18;;;;;;;16.28;64.41;96462.22;4994453;28;20040;-79
2021/05/11 03:14:45;;;;;;;6.13;4.28;;;;;;;16.30;64.08;96461.94;4994544;28;20394;-77
2021/05/11 03:17:11;;;;;;;6.47;4.18;;;;;;;16.25;64.14;96439.19;4995881;28;20061;-79
2021/05/11 03:19:36;;;;;;;5.70;4.20;;;;;;;16.33;63.59;96450.84;5014657;28;20205;-79
2021/05/11 03:22:02;;;;;;;5.50;4.07;;;;;;;16.30;63.86;96456.69;4997717;28;20037;-79
2021/05/11 03:24:27;;;;;;;4.93;3.70;;;;;;;16.27;63.93;96454.63;5014131;28;20033;-79
2021/05/11 03:26:52;;;;;;;6.60;4.22;;;;;;;16.27;63.73;96452.78;4981450;28;20130;-79
2021/05/11 03:29:18;;;;;;;6.20;4.30;;;;;;;16.18;64.18;96449.31;5014686;28;20025;-79
2021/05/11 03:31:44;;;;;;;5.40;3.72;;;;;;;16.23;63.94;96443.97;5014472;28;20061;-79
2021/05/11 03:34:09;;;;;;;5.35;3.72;;;;;;;16.12;64.11;96437.38;4997597;28;20710;-79
2021/05/11 03:36:35;;;;;;;4.00;3.00;;;;;;;16.19;63.92;96440.34;5013827;28;20033;-79
2021/05/11 03:39:04;;;;;;;4.45;3.47;;;;;;;16.19;64.07;96450.84;4995217;28;20029;-79
2021/05/11 03:41:35;;;;;;;3.83;2.53;;;;;;;16.15;63.82;96439.41;4998199;28;20045;-79
2021/05/11 03:44:07;;;;;;;3.40;2.72;;;;;;;16.13;64.23;96438.94;5014468;28;20515;-79
2021/05/11 03:46:35;;;;;;;3.55;2.40;;;;;;;16.15;64.04;96447.28;5014744;28;20416;-79
2021/05/11 03:49:00;;;;;;;2.78;2.47;;;;;;;16.17;63.86;96444.38;5014270;28;20086;-79
2021/05/11 03:51:26;;;;;;;2.95;2.20;;;;;;;16.16;63.80;96446.22;4997611;28;20033;-79
2021/05/11 03:53:51;;;;;;;3.00;2.10;;;;;;;16.11;63.68;96438.47;4997494;28;20033;-79
2021/05/11 03:56:17;;;;;;;2.45;2.25;;;;;;;16.10;63.72;96436.91;4997619;28;20022;-78
2021/05/11 03:58:42;;;;;;;4.00;3.25;;;;;;;16.01;63.79;96430.81;4998192;28;20040;-78
2021/05/11 04:01:08;;;;;;;3.90;2.60;;;;;;;15.96;63.69;96418.56;5014440;28;20042;-78
2021/05/11 04:03:33;;;;;;;3.53;2.58;;;;;;;15.91;63.88;96398.44;4981569;28;20022;-78
2021/05/11 04:06:02;;;;;;;4.03;2.55;;;;;;;15.86;63.55;96382.06;4998326;28;20036;-79
2021/05/11 04:11:22;;;;;;;3.28;2.97;;;;;;;15.81;64.16;96390.81;5015620;28;20539;-79
2021/05/11 04:16:32;;;;;;;4.35;2.72;;;;;;;15.85;63.33;96391.78;5016841;28;20069;-79
2021/05/11 04:18:58;;;;;;;4.40;3.60;;;;;;;15.73;63.75;96389.66;4997871;28;20037;-78
2021/05/11 04:21:23;;;;;;;4.38;3.55;;;;;;;15.77;63.61;96387.25;5014201;28;20429;-78
2021/05/11 04:23:50;;;;;;;4.72;3.80;;;;;;;15.77;64.13;96400.34;4997281;28;20122;-79
2021/05/11 04:26:16;;;;;;;5.03;3.60;;;;;;;15.83;64.14;96412.28;4997605;28;20373;-79
2021/05/11 04:28:42;;;;;;;4.18;3.08;;;;;;;15.85;63.81;96418.03;4997296;28;20036;-79
2021/05/11 04:31:08;;;;;;;5.53;4.10;;;;;;;15.87;63.98;96423.75;5001620;28;20420;-79
2021/05/11 04:33:34;;;;;;;4.75;3.60;;;;;;;15.98;63.92;96428.78;5007631;28;20041;-79
2021/05/11 04:36:00;;;;;;;5.97;3.90;;;;;;;15.96;63.74;96423.06;4983266;28;20050;-78
2021/05/11 04:38:25;;;;;;;4.47;3.55;;;;;;;15.95;63.98;96418.88;4986256;28;20056;-79
2021/05/11 04:40:52;;;;;;;3.63;2.85;;;;;;;15.96;64.04;96425.69;5010543;28;20060;-79
2021/05/11 04:43:18;;;;;;;3.72;3.03;;;;;;;16.04;63.85;96435.47;4977791;28;20045;-79
2021/05/11 04:45:43;;;;;;;4.18;3.35;;;;;;;16.08;63.71;96433.81;5007057;28;20037;-79
2021/05/11 04:48:09;;;;;;;3.47;2.70;;;;;;;16.12;63.85;96442.63;4997221;28;20030;-79
2021/05/11 04:50:35;;;;;;;3.47;2.75;;;;;;;16.24;63.89;96442.88;5013628;28;20040;-78
2021/05/11 04:53:01;;;;;;;3.88;2.85;;;;;;;16.27;63.79;96423.88;4980465;28;20025;-78
2021/05/11 04:55:26;;;;;;;2.85;2.20;;;;;;;16.34;63.61;96409.56;4980319;28;20036;-79
2021/05/11 04:57:52;;;;;;;3.55;2.92;;;;;;;16.31;63.38;96399.66;5030862;28;20045;-78
2021/05/11 05:00:18;;;;;;;25.17;18.13;;;;;;;16.32;63.74;96393.34;4996470;28;20913;-79
2021/05/11 05:02:45;;;;;;;66.60;46.22;;;;;;;16.32;63.73;96388.84;4973598;28;20527;-78
2021/05/11 05:05:12;;;;;;;19.13;15.15;;;;;;;16.38;63.36;96392.13;4993526;28;20478;-79
2021/05/11 05:07:38;;;;;;;6.82;5.28;;;;;;;16.51;63.46;96407.03;4989718;28;20634;-79
2021/05/11 05:10:05;;;;;;;2.95;2.65;;;;;;;16.50;63.14;96421.22;4975323;28;20025;-78
2021/05/11 05:12:31;;;;;;;2.83;2.20;;;;;;;16.41;62.85;96423.03;4989502;28;20026;-78
2021/05/11 05:14:56;;;;;;;2.53;2.03;;;;;;;16.39;63.35;96435.72;4986074;28;20088;-79
2021/05/11 05:17:22;;;;;;;2.63;2.20;;;;;;;16.44;63.37;96451.34;4992957;28;20029;-78
2021/05/11 05:19:47;;;;;;;2.53;2.13;;;;;;;16.36;63.72;96442.31;5012281;28;20026;-78
2021/05/11 05:22:13;;;;;;;2.72;2.33;;;;;;;16.36;63.73;96423.94;4978588;28;20314;-78
2021/05/11 05:24:44;;;;;;;20.08;13.43;;;;;;;16.28;63.94;96409.69;4984529;28;20040;-79
2021/05/11 05:29:42;;;;;;;3.58;2.70;;;;;;;16.39;63.64;96433.09;5027755;28;20025;-78
2021/05/11 05:32:07;;;;;;;3.45;2.42;;;;;;;16.42;63.49;96440.38;4980905;28;20047;-79
2021/05/11 05:34:33;;;;;;;3.10;2.80;;;;;;;16.43;63.88;96431.41;4997066;28;20036;-79
2021/05/11 05:36:58;;;;;;;3.33;2.65;;;;;;;16.41;63.39;96423.81;5009613;28;20045;-78
2021/05/11 05:39:31;;;;;;;6.22;5.63;;;;;;;16.44;62.88;96432.97;5012843;28;20042;-78
2021/05/11 05:41:56;;;;;;;4.65;3.70;;;;;;;16.42;63.11;96425.38;4991082;28;20029;-79
2021/05/11 05:44:22;;;;;;;4.88;3.30;;;;;;;16.34;63.39;96420.06;4980098;28;20041;-78
2021/05/11 05:46:47;;;;;;;4.80;4.30;;;;;;;16.39;63.36;96409.44;5000410;28;20037;-79
2021/05/11 05:49:15;;;;;;;4.13;3.00;;;;;;;16.29;63.48;96421.72;4996183;28;20029;-79
2021/05/11 05:51:41;;;;;;;2.40;2.20;;;;;;;16.46;62.86;96421.06;4995878;28;20116;-78
2021/05/11 05:54:07;;;;;;;2.92;2.55;;;;;;;16.46;63.24;96430.81;5008779;28;20065;-78
2021/05/11 05:56:32;;;;;;;2.58;2.22;;;;;;;16.47;63.43;96440.25;4988280;28;20071;-79
2021/05/11 05:58:58;;;;;;;4.18;1.98;;;;;;;16.44;63.31;96440.84;5012431;28;20083;-79
2021/05/11 06:01:28;;;;;;;3.53;2.60;;;;;;;16.43;63.34;96447.16;4983107;28;20033;-78
2021/05/11 06:04:09;;;;;;;3.40;2.42;;;;;;;16.18;63.69;96445.94;4990030;28;20512;-78
2021/05/11 06:06:34;;;;;;;2.20;2.00;;;;;;;16.44;63.20;96444.25;5024970;28;20039;-78
2021/05/11 06:09:00;;;;;;;2.55;1.85;;;;;;;16.52;63.32;96453.25;5012038;28;20041;-79
2021/05/11 06:11:42;;;;;;;3.15;1.90;;;;;;;16.44;63.43;96454.75;5007289;28;20034;-79
2021/05/11 06:15:01;;;;;;;2.10;1.90;;;;;;;16.55;63.48;96454.50;5005134;28;20060;-79
2021/05/11 06:19:42;;;;;;;2.75;1.80;;;;;;;16.45;63.71;96456.31;5008152;28;20029;-78
2021/05/11 06:22:08;;;;;;;2.10;1.52;;;;;;;16.47;63.42;96448.13;4995668;28;20072;-79
2021/05/11 06:24:33;;;;;;;2.83;2.28;;;;;;;16.37;63.28;96435.25;5011790;28;20057;-79
2021/05/11 06:26:58;;;;;;;5.07;2.53;;;;;;;16.36;63.81;96438.94;5011304;28;20033;-79
2021/05/11 06:29:26;;;;;;;3.22;2.47;;;;;;;16.28;63.69;96422.81;4995281;28;20384;-79
2021/05/11 06:31:51;;;;;;;3.45;2.47;;;;;;;16.28;63.56;96412.31;4981703;28;20065;-79
2021/05/11 06:34:17;;;;;;;3.83;2.10;;;;;;;16.26;63.81;96405.78;4989606;28;20072;-79
2021/05/11 06:36:42;;;;;;;3.28;2.28;;;;;;;16.35;63.49;96403.22;5010611;28;20033;-80
2021/05/11 06:39:10;;;;;;;3.92;2.63;;;;;;;16.36;63.52;96399.53;5008294;28;20403;-80
2021/05/11 06:41:37;;;;;;;4.18;2.70;;;;;;;16.29;63.88;96390.22;4958960;28;20493;-79
2021/05/11 06:44:14;;;;;;;4.18;2.88;;;;;;;16.28;63.79;96372.16;4972263;28;20056;-79
2021/05/11 06:47:12;;;;;;;3.20;2.53;;;;;;;16.23;64.10;96369.66;4989461;28;20479;-79
2021/05/11 06:49:44;;;;;;;4.38;2.80;;;;;;;16.37;64.12;96385.31;5028491;28;20041;-79
2021/05/11 06:54:53;;;;;;;3.63;3.25;;;;;;;16.44;63.94;96396.94;5014627;28;20029;-79
2021/05/11 06:57:18;;;;;;;3.85;3.22;;;;;;;16.40;63.83;96396.00;4981679;28;20505;-79
2021/05/11 06:59:44;;;;;;;3.90;3.22;;;;;;;16.47;63.62;96400.84;4998178;28;20037;-79
2021/05/11 07:02:09;;;;;;;3.65;2.67;;;;;;;16.32;63.62;96383.59;5007376;28;20468;-79
2021/05/11 07:04:34;;;;;;;3.35;2.63;;;;;;;16.24;63.82;96385.06;5014468;28;20060;-78
2021/05/11 07:07:00;;;;;;;3.55;2.60;;;;;;;16.44;63.73;96383.03;5014770;28;20107;-79
2021/05/11 07:14:35;;;;;;;3.75;2.90;;;;;;;16.39;63.98;96372.66;5014261;28;20045;-79
2021/05/11 07:17:00;;;;;;;5.45;3.58;;;;;;;16.39;64.36;96368.16;4979681;28;20176;-79
2021/05/11 07:19:25;;;;;;;3.88;2.88;;;;;;;16.35;64.33;96367.22;4998914;28;20038;-78
2021/05/11 07:21:51;;;;;;;3.05;2.60;;;;;;;16.51;63.78;96372.88;4979090;28;20022;-79
2021/05/11 07:24:18;;;;;;;5.28;3.00;;;;;;;16.45;63.46;96366.97;4981770;28;20034;-79
2021/05/11 07:27:10;;;;;;;4.03;3.40;;;;;;;16.33;63.90;96371.22;4977401;28;20100;-79
2021/05/11 07:32:00;;;;;;;4.18;3.67;;;;;;;16.43;63.87;96389.38;4982556;28;20463;-79
2021/05/11 07:34:27;;;;;;;5.15;4.50;;;;;;;16.28;63.59;96378.16;4998587;28;20029;-80
2021/05/11 07:36:52;;;;;;;6.50;4.45;;;;;;;16.38;63.92;96376.34;4995316;28;20030;-80
2021/05/11 07:39:19;;;;;;;4.97;4.00;;;;;;;16.39;63.77;96383.94;4990875;28;20095;-80
2021/05/11 07:41:44;;;;;;;4.97;4.35;;;;;;;16.48;63.43;96386.59;4977991;28;20021;-80
2021/05/11 07:44:10;;;;;;;5.95;4.50;;;;;;;16.56;63.65;96398.25;5013715;28;20037;-81
2021/05/11 08:03:37;;;;;;;5.38;4.55;;;;;;;16.71;63.50;96389.19;5000668;28;20535;-80
2021/05/11 08:15:35;;;;;;;8.68;5.28;;;;;;;16.70;63.77;96377.13;5006058;28;20045;-80
2021/05/11 08:17:31;;;;;;;5.82;4.50;;;;;;;16.59;63.44;96382.66;5000357;28;20041;-80
2021/05/11 08:27:58;;;;;;;4.87;4.10;;;;;;;16.42;64.04;96362.31;5012123;28;20033;-79
2021/05/11 08:30:24;;;;;;;5.50;4.53;;;;;;;16.32;64.95;96361.81;4994655;28;20492;-79
2021/05/11 08:32:49;;;;;;;6.68;5.05;;;;;;;16.23;65.06;96344.16;4978289;28;20090;-79
2021/05/11 08:35:15;;;;;;;5.25;3.95;;;;;;;16.07;65.72;96330.63;4995898;28;20446;-78
2021/05/11 08:37:40;;;;;;;5.75;4.43;;;;;;;16.06;65.48;96329.06;4975904;28;20065;-78
2021/05/11 08:40:06;;;;;;;6.05;5.15;;;;;;;16.25;65.16;96330.72;4993123;28;20346;-79
2021/05/11 08:42:32;;;;;;;6.25;4.90;;;;;;;16.27;64.89;96313.56;5013556;28;20045;-79
2021/05/11 08:45:07;;;;;;;4.85;4.18;;;;;;;16.03;64.98;96315.75;5013697;28;20037;-79
2021/05/11 08:47:35;;;;;;;4.35;3.45;;;;;;;16.29;64.44;96324.53;5012912;28;20039;-79
2021/05/11 08:50:01;;;;;;;3.97;3.60;;;;;;;16.55;64.00;96338.88;4997162;28;20029;-79
2021/05/11 08:53:04;;;;;;;4.93;3.80;;;;;;;16.48;63.82;96339.31;4980591;28;20056;-79
2021/05/11 08:59:55;;;;;;;3.15;2.80;;;;;;;16.65;63.80;96334.13;5003410;28;20512;-79
2021/05/11 09:24:07;;;;;;;2.42;2.17;;;;;;;16.81;63.25;96389.72;4992654;28;20389;-79
2021/05/11 09:35:11;;;;;;;4.60;2.80;;;;;;;16.99;63.56;96426.59;5011554;28;20034;-79
2021/05/11 09:50:58;;;;;;;3.15;2.85;;;;;;;16.89;63.15;96437.41;4998957;28;20113;-78
2021/05/11 09:59:49;;;;;;;4.30;3.90;;;;;;;17.03;63.18;96407.28;5018736;28;20056;-78
2021/05/11 10:47:02;;;;;;;1.40;1.30;;;;;;;17.69;61.60;96414.38;5011332;28;20128;-79
2021/05/11 10:49:32;;;;;;;1.00;0.73;;;;;;;17.62;61.45;96426.47;4995563;28;20416;-78
2021/05/11 10:52:09;;;;;;;1.70;1.60;;;;;;;17.36;62.43;96432.47;4995352;28;20029;-78
2021/05/11 10:54:50;;;;;;;1.70;1.17;;;;;;;17.31;62.37;96432.59;5029185;28;20071;-78
2021/05/11 10:57:57;;;;;;;1.05;0.75;;;;;;;17.15;62.54;96430.38;4988247;28;20485;-78
2021/05/11 11:00:43;;;;;;;0.95;0.85;;;;;;;17.56;61.79;96436.34;4998174;28;20472;-78
2021/05/11 11:03:39;;;;;;;2.17;0.90;;;;;;;17.12;62.96;96430.19;5011266;28;20025;-78
2021/05/11 11:06:04;;;;;;;1.35;0.75;;;;;;;17.58;62.42;96445.50;4977665;28;20168;-78
2021/05/11 11:08:37;;;;;;;0.88;0.68;;;;;;;17.70;61.97;96450.16;4995597;28;20065;-78
2021/05/11 11:11:14;;;;;;;1.13;0.85;;;;;;;17.58;62.07;96455.25;4995336;28;20025;-78
2021/05/11 11:13:47;;;;;;;1.33;0.80;;;;;;;17.45;62.43;96454.28;4995395;28;20056;-78
2021/05/11 11:16:13;;;;;;;0.80;0.50;;;;;;;17.64;62.18;96458.53;5012247;28;20025;-78
2021/05/11 11:18:40;;;;;;;0.80;0.68;;;;;;;17.72;62.20;96463.78;4995822;28;20034;-78
2021/05/11 11:23:45;;;;;;;2.50;0.90;;;;;;;17.69;62.37;96495.22;4994214;28;20117;-79
2021/05/11 11:26:13;;;;;;;1.00;0.90;;;;;;;17.74;62.53;96509.03;5007240;28;20029;-79
2021/05/11 11:28:39;;;;;;;1.48;1.05;;;;;;;17.67;62.29;96508.69;4981897;28;20038;-79
2021/05/11 11:31:29;;;;;;;2.00;0.65;;;;;;;17.25;63.16;96505.63;4993918;28;20029;-79
2021/05/11 11:34:33;;;;;;;1.70;0.60;;;;;;;17.15;62.80;96504.03;4980307;28;20041;-78
2021/05/11 11:37:00;;;;;;;0.98;0.82;;;;;;;17.42;62.89;96518.81;4976900;28;20167;-79
2021/05/11 11:39:42;;;;;;;1.40;0.90;;;;;;;17.28;62.46;96512.91;4995606;28;20038;-79
2021/05/11 11:42:16;;;;;;;1.20;0.52;;;;;;;17.16;63.19;96512.69;4998939;28;20029;-79
2021/05/11 11:44:42;;;;;;;1.45;0.70;;;;;;;17.39;63.22;96506.31;5013879;28;20044;-78
2021/05/11 11:47:09;;;;;;;2.47;1.40;;;;;;;17.34;63.34;96500.38;4980247;28;20029;-78
2021/05/11 11:49:39;;;;;;;2.08;1.48;;;;;;;17.31;63.54;96499.16;4994749;28;20041;-79
2021/05/11 11:52:15;;;;;;;1.77;1.15;;;;;;;17.32;63.67;96486.75;4999942;28;20034;-78
2021/05/11 12:00:16;;;;;;;1.55;1.30;;;;;;;17.28;64.23;96462.91;5017824;28;20431;-78
2021/05/11 12:02:53;;;;;;;1.75;1.08;;;;;;;17.17;64.56;96444.00;4992811;28;20072;-78
2021/05/11 12:05:20;;;;;;;2.03;0.80;;;;;;;17.56;63.69;96444.25;5025460;28;20112;-77
2021/05/11 12:10:27;;;;;;;1.58;1.40;;;;;;;17.55;63.62;96437.44;5015124;28;20053;-78
2021/05/11 12:12:53;;;;;;;1.60;1.20;;;;;;;17.85;63.33;96425.22;5015657;28;20144;-79
2021/05/11 12:15:20;;;;;;;0.90;0.90;;;;;;;18.09;62.53;96445.84;5015091;28;20488;-78
2021/05/11 12:17:58;;;;;;;0.90;0.70;;;;;;;17.94;62.49;96460.28;5015295;28;20037;-78
2021/05/11 12:20:26;;;;;;;1.27;1.10;;;;;;;18.30;62.43;96464.47;4986974;28;20029;-79
2021/05/11 12:23:03;;;;;;;1.08;0.90;;;;;;;18.08;62.06;96464.63;4998995;28;20053;-79
2021/05/11 12:25:28;;;;;;;1.40;0.82;;;;;;;18.42;61.21;96463.03;4980278;28;20037;-79
2021/05/11 12:27:53;;;;;;;1.08;0.60;;;;;;;18.47;61.37;96466.31;5014378;28;20033;-79
2021/05/11 12:30:20;;;;;;;0.80;0.63;;;;;;;18.50;61.50;96470.94;5008280;28;20120;-80
2021/05/11 12:32:45;;;;;;;0.50;0.50;;;;;;;18.48;61.25;96456.53;5013174;28;20034;-79
2021/05/11 12:35:11;;;;;;;0.55;0.55;;;;;;;18.62;60.68;96462.38;5004924;28;20041;-78
2021/05/11 12:37:44;;;;;;;0.60;0.60;;;;;;;18.28;59.96;96450.84;5008774;28;20038;-78
2021/05/11 12:40:22;;;;;;;1.77;0.60;;;;;;;18.53;59.45;96443.94;5008896;28;20467;-78
2021/05/11 12:42:47;;;;;;;0.68;0.50;;;;;;;18.41;60.07;96446.47;5015455;28;20448;-78
2021/05/11 12:45:15;;;;;;;1.15;0.85;;;;;;;18.31;60.68;96433.59;5014165;28;20113;-78
2021/05/11 12:47:47;;;;;;;0.98;0.60;;;;;;;18.20;60.07;96430.53;5014476;28;20087;-79
2021/05/11 12:50:22;;;;;;;0.93;0.60;;;;;;;18.19;60.15;96426.34;5014090;28;20431;-78
2021/05/11 12:52:49;;;;;;;0.88;0.70;;;;;;;18.31;59.84;96430.97;4974650;28;20124;-78
2021/05/11 12:55:47;;;;;;;0.30;0.30;;;;;;;18.01;59.85;96425.59;5013863;28;20392;-78
2021/05/11 12:58:30;;;;;;;1.00;0.30;;;;;;;18.11;60.04;96427.91;4997446;28;20416;-78
2021/05/11 13:01:05;;;;;;;0.65;0.50;;;;;;;18.58;60.60;96432.47;4997324;28;20040;-78
2021/05/11 13:17:04;;;;;;;0.40;0.40;;;;;;;18.89;61.07;96455.97;4992319;28;20029;-78
2021/05/11 13:25:30;;;;;;;0.50;0.50;;;;;;;18.98;60.02;96461.22;4982812;28;20503;-78
2021/05/11 13:35:37;;;;;;;1.35;0.70;;;;;;;18.59;61.24;96443.78;5001120;28;20034;-78
2021/05/11 13:38:04;;;;;;;1.98;0.80;;;;;;;18.56;61.30;96457.59;4986840;28;20452;-78
2021/05/11 13:40:29;;;;;;;0.80;0.80;;;;;;;18.46;61.22;96445.53;4985919;28;20093;-78
2021/05/11 13:42:55;;;;;;;1.05;0.60;;;;;;;18.52;61.31;96445.06;5016057;28;20068;-78
2021/05/11 13:45:20;;;;;;;1.77;0.80;;;;;;;18.56;61.27;96439.94;4988178;28;20034;-78
2021/05/11 13:48:02;;;;;;;0.65;0.52;;;;;;;18.58;61.35;96445.66;4997130;28;20033;-78
2021/05/11 13:53:12;;;;;;;0.55;0.50;;;;;;;18.66;61.11;96446.72;5000360;28;20037;-78
2021/05/11 13:56:11;;;;;;;0.82;0.77;;;;;;;18.62;61.19;96443.94;5013512;28;20038;-78
2021/05/11 14:03:52;;;;;;;1.05;0.40;;;;;;;18.84;60.19;96458.03;5013258;28;20113;-78
2021/05/11 14:06:17;;;;;;;0.50;0.50;;;;;;;18.90;60.14;96470.72;5011015;28;20105;-78
2021/05/11 14:08:43;;;;;;;0.70;0.60;;;;;;;18.88;60.65;96465.00;4993679;28;20088;-78
2021/05/11 14:11:08;;;;;;;1.20;0.50;;;;;;;18.79;60.61;96460.81;5006996;28;20480;-78
2021/05/11 14:13:33;;;;;;;2.22;0.50;;;;;;;18.77;61.25;96470.91;4991078;28;20030;-78
2021/05/11 14:15:59;;;;;;;0.52;0.52;;;;;;;18.77;61.24;96463.00;4990720;28;20037;-78
2021/05/11 14:18:24;;;;;;;0.60;0.60;;;;;;;18.73;60.96;96465.47;4980182;28;20103;-78
2021/05/11 14:20:49;;;;;;;0.60;0.60;;;;;;;18.77;61.21;96471.66;4994384;28;20033;-78
2021/05/11 14:23:15;;;;;;;0.60;0.57;;;;;;;18.72;61.08;96482.38;5012237;28;20033;-78
2021/05/11 14:25:42;;;;;;;0.60;0.60;;;;;;;18.73;61.23;96476.03;5006077;28;20543;-78
2021/05/11 14:28:08;;;;;;;2.67;0.93;;;;;;;18.62;61.48;96477.44;5005900;28;20147;-78
2021/05/11 14:30:33;;;;;;;1.40;1.08;;;;;;;18.62;61.32;96482.72;5012894;28;20057;-78
2021/05/11 14:32:59;;;;;;;1.05;0.77;;;;;;;18.53;61.79;96478.22;4995945;28;20034;-79
2021/05/11 14:35:26;;;;;;;1.63;0.80;;;;;;;18.52;61.66;96479.31;5001162;28;20061;-78
2021/05/11 14:37:54;;;;;;;0.77;0.70;;;;;;;18.47;62.09;96466.31;4996470;28;20030;-78
2021/05/11 14:40:19;;;;;;;0.85;0.80;;;;;;;18.45;61.81;96468.47;4992854;28;20626;-78
2021/05/11 14:42:45;;;;;;;2.33;0.85;;;;;;;18.37;61.94;96456.09;4980974;28;20045;-78
2021/05/11 14:45:11;;;;;;;1.20;0.60;;;;;;;18.51;62.14;96461.94;4996038;28;20626;-78
2021/05/11 14:47:36;;;;;;;0.88;0.77;;;;;;;18.57;61.82;96459.91;4975448;28;20525;-78
2021/05/11 14:50:03;;;;;;;0.98;0.65;;;;;;;18.56;61.63;96461.03;4976155;28;20027;-78
2021/05/11 14:52:28;;;;;;;0.73;0.60;;;;;;;18.68;61.63;96455.09;4966276;28;20041;-78
2021/05/11 14:54:54;;;;;;;1.10;0.88;;;;;;;18.59;60.75;96452.47;4979487;28;20034;-79
2021/05/11 14:57:20;;;;;;;2.15;0.50;;;;;;;18.58;60.54;96450.94;4971651;28;20033;-78
2021/05/11 14:59:45;;;;;;;0.60;0.60;;;;;;;18.67;60.59;96459.59;5008464;28;20030;-78
2021/05/11 15:02:14;;;;;;;1.40;0.52;;;;;;;18.73;60.72;96449.66;4985574;28;20075;-78
2021/05/11 15:04:43;;;;;;;0.82;0.70;;;;;;;18.72;60.27;96448.09;4972107;28;20121;-78
2021/05/11 15:07:08;;;;;;;1.17;0.70;;;;;;;18.72;60.69;96453.38;5010485;28;20025;-78
2021/05/11 15:09:34;;;;;;;0.55;0.55;;;;;;;18.62;60.55;96446.56;5011644;28;20034;-78
2021/05/11 15:11:59;;;;;;;0.80;0.80;;;;;;;18.58;60.93;96453.56;4979105;28;20065;-78
2021/05/11 15:14:24;;;;;;;1.02;0.98;;;;;;;18.60;61.18;96459.28;4999120;28;20025;-78
2021/05/11 15:16:57;;;;;;;0.80;0.60;;;;;;;18.66;60.85;96451.97;4983246;28;20033;-78
2021/05/11 15:19:23;;;;;;;0.80;0.70;;;;;;;18.66;60.91;96462.53;4997595;28;20112;-78
2021/05/11 15:21:49;;;;;;;0.68;0.60;;;;;;;18.61;60.82;96474.03;5002897;28;20120;-78
2021/05/11 15:24:14;;;;;;;0.98;0.77;;;;;;;18.63;60.84;96479.00;5015457;28;20021;-78
2021/05/11 15:26:39;;;;;;;0.73;0.73;;;;;;;18.61;60.73;96491.69;5012271;28;20049;-79
2021/05/11 15:29:05;;;;;;;1.25;0.90;;;;;;;18.58;61.26;96494.97;4979961;28;20048;-78
2021/05/11 15:31:31;;;;;;;1.23;0.95;;;;;;;18.56;61.41;96489.22;4983501;28;20381;-78
2021/05/11 15:33:56;;;;;;;0.85;0.80;;;;;;;18.56;60.96;96489.22;4998115;28;20041;-78
2021/05/11 15:36:23;;;;;;;1.95;1.08;;;;;;;18.45;60.97;96483.50;4998436;28;20116;-78
2021/05/11 15:38:49;;;;;;;1.55;0.90;;;;;;;18.36;61.21;96482.75;4962294;28;20436;-78
2021/05/11 15:41:15;;;;;;;1.77;0.95;;;;;;;18.47;61.18;96484.75;4981632;28;20354;-78
2021/05/11 15:43:40;;;;;;;2.00;1.00;;;;;;;18.41;61.17;96480.72;4998505;28;20037;-78
2021/05/11 15:46:06;;;;;;;0.95;0.75;;;;;;;18.39;60.73;96487.41;4991068;28;20392;-78
2021/05/11 15:48:32;;;;;;;1.00;0.90;;;;;;;18.36;60.62;96480.13;4990790;28;20022;-78
2021/05/11 15:50:58;;;;;;;1.45;0.88;;;;;;;18.45;60.87;96489.53;5009168;28;20033;-78